Time;durP1;ratioP1;P1;durP2;ratioP2;P2;SDS_P1;SDS_P2;PMS_P1;PMS_P2;Temp;Humidity;BMP_temperature;BMP_pressure;BME280_temperature;BME280_humidity;BME280_pressure;Samples;Min_cycle;Max_cycle;Signal;HPM_P1;HPM_P2
2020/12/03 00:02:28;;;;;;;48.95;24.30;;;;;;;-0.56;100.00;100773.02;10729848;82;21040;-79
2020/12/03 00:17:33;;;;;;;38.10;18.85;;;;;;;-0.66;100.00;100757.48;10661601;82;21013;-80
2020/12/03 00:32:37;;;;;;;42.27;19.90;;;;;;;-0.57;100.00;100735.27;10753812;82;21116;-79
2020/12/03 00:47:43;;;;;;;45.40;21.07;;;;;;;-0.52;100.00;100760.41;10473327;84;21413;-80
2020/12/03 01:02:48;;;;;;;37.30;17.20;;;;;;;-0.56;100.00;100761.88;10268297;85;21460;-80
2020/12/03 01:17:52;;;;;;;47.50;24.50;;;;;;;-0.57;100.00;100761.47;10327956;85;21049;-79
2020/12/03 01:32:56;;;;;;;44.73;21.87;;;;;;;-0.67;100.00;100742.91;10231182;85;21546;-79
2020/12/03 01:48:01;;;;;;;46.63;23.77;;;;;;;-0.82;100.00;100698.33;10710325;82;21031;-78
2020/12/03 02:03:05;;;;;;;46.65;23.67;;;;;;;-0.85;100.00;100694.95;10699483;82;21030;-78
2020/12/03 02:18:10;;;;;;;46.80;23.15;;;;;;;-0.88;100.00;100682.19;10695850;82;21529;-77
2020/12/03 02:33:15;;;;;;;44.35;21.73;;;;;;;-0.98;100.00;100669.22;10726826;82;21171;-78
2020/12/03 02:48:19;;;;;;;53.98;26.85;;;;;;;-0.94;100.00;100657.91;10715858;81;21104;-78
2020/12/03 03:03:24;;;;;;;46.70;24.80;;;;;;;-1.08;100.00;100626.21;10740318;82;21099;-79
2020/12/03 03:18:28;;;;;;;91.22;32.28;;;;;;;-1.14;100.00;100620.43;10731028;82;21127;-79
2020/12/03 03:33:32;;;;;;;274.30;157.20;;;;;;;-1.11;100.00;100596.71;10731900;80;21023;-78
2020/12/03 03:48:37;;;;;;;46.13;23.62;;;;;;;-1.16;100.00;100585.73;10679260;82;21024;-78
2020/12/03 04:03:41;;;;;;;52.23;29.85;;;;;;;-1.25;100.00;100562.87;10815356;81;21031;-78
2020/12/03 04:18:45;;;;;;;56.45;26.12;;;;;;;-1.27;100.00;100537.16;10691695;82;21093;-79
2020/12/03 04:33:50;;;;;;;93.40;39.45;;;;;;;-1.15;100.00;100529.45;10820600;82;21016;-79
2020/12/03 04:49:23;;;;;;;111.00;48.98;;;;;;;-1.25;100.00;100513.50;10548341;83;21479;-78
2020/12/03 05:04:36;;;;;;;64.92;28.50;;;;;;;-1.15;100.00;100519.15;10549333;83;21674;-79
2020/12/03 05:19:46;;;;;;;52.40;25.05;;;;;;;-1.37;100.00;100502.36;10604550;82;21108;-79
2020/12/03 05:34:51;;;;;;;60.08;24.65;;;;;;;-1.29;100.00;100510.64;10646635;82;21031;-79
2020/12/03 05:49:59;;;;;;;45.17;23.20;;;;;;;-1.25;100.00;100499.34;10733849;82;21036;-79
2020/12/03 06:05:16;;;;;;;59.65;24.60;;;;;;;-1.31;100.00;100499.55;10811510;81;21000;-80
2020/12/03 06:20:38;;;;;;;71.43;31.00;;;;;;;-1.44;100.00;100494.44;10817143;82;21621;-79
2020/12/03 06:35:49;;;;;;;83.90;31.37;;;;;;;-1.35;100.00;100482.10;10429219;84;21052;-79
2020/12/03 06:52:00;;;;;;;72.45;29.25;;;;;;;-1.27;100.00;100473.25;10750258;82;21061;-79
2020/12/03 07:07:32;;;;;;;128.90;51.25;;;;;;;-1.35;100.00;100446.07;10604762;83;21556;-79
2020/12/03 07:22:42;;;;;;;170.15;53.87;;;;;;;-1.28;100.00;100447.97;10534635;83;21018;-81
2020/12/03 07:37:52;;;;;;;98.05;36.63;;;;;;;-1.13;100.00;100432.86;10687087;81;21067;-81
2020/12/03 07:53:18;;;;;;;58.92;24.18;;;;;;;-1.04;100.00;100424.80;10459716;84;21570;-81
2020/12/03 08:08:33;;;;;;;57.40;26.67;;;;;;;-0.81;100.00;100424.36;10791769;81;21092;-81
2020/12/03 08:23:39;;;;;;;60.58;28.83;;;;;;;-0.43;100.00;100419.44;10422804;84;21042;-81
2020/12/03 08:38:49;;;;;;;345.80;83.43;;;;;;;-0.26;100.00;100412.31;10468412;83;21062;-81
2020/12/03 08:53:53;;;;;;;134.20;51.65;;;;;;;-0.18;100.00;100390.45;10760718;80;21056;-81
2020/12/03 09:08:58;;;;;;;93.50;36.85;;;;;;;0.29;100.00;100386.76;10792042;80;20993;-80
2020/12/03 09:24:05;;;;;;;77.92;28.50;;;;;;;0.81;100.00;100361.63;10815001;80;21484;-80
2020/12/03 09:39:12;;;;;;;141.40;40.48;;;;;;;1.88;100.00;100311.23;10773215;82;21164;-80
2020/12/03 09:54:16;;;;;;;64.77;28.93;;;;;;;1.88;100.00;100311.23;10688209;81;21535;-84
2020/12/03 10:10:03;;;;;;;258.47;94.40;;;;;;;2.25;100.00;100232.12;10692326;81;21092;-84
2020/12/03 10:25:18;;;;;;;101.20;36.55;;;;;;;2.46;97.16;100267.19;10715131;81;21017;-83
2020/12/03 10:40:24;;;;;;;82.75;33.45;;;;;;;2.56;97.04;100244.66;10750913;81;21076;-81
2020/12/03 10:55:28;;;;;;;92.50;33.90;;;;;;;2.29;98.86;100206.44;10689566;82;21056;-81
2020/12/03 11:10:34;;;;;;;89.13;32.63;;;;;;;1.81;100.00;100190.42;10715271;81;21104;-83
2020/12/03 11:25:40;;;;;;;96.37;38.13;;;;;;;1.79;100.00;100206.47;10671555;82;21033;-83
2020/12/03 11:40:53;;;;;;;53.93;22.03;;;;;;;2.19;100.00;100197.49;10674377;80;21547;-79
2020/12/03 11:55:54;;;;;;;50.38;21.80;;;;;;;3.08;95.28;100168.33;10673277;82;21099;-79
2020/12/03 12:11:01;;;;;;;69.35;31.60;;;;;;;3.29;91.25;100151.97;10545215;82;21040;-79
2020/12/03 12:26:05;;;;;;;88.20;40.65;;;;;;;2.80;92.93;100114.23;10604209;82;21471;-79
2020/12/03 12:41:10;;;;;;;102.22;50.88;;;;;;;2.78;94.95;100111.70;10589154;82;21119;-79
2020/12/03 12:56:15;;;;;;;98.25;37.20;;;;;;;2.21;96.23;100120.60;10439119;83;21099;-79
2020/12/03 13:11:19;;;;;;;73.35;33.28;;;;;;;1.80;100.00;100104.67;10606225;82;21060;-79
2020/12/03 13:26:24;;;;;;;62.38;27.52;;;;;;;1.73;100.00;100093.44;10697869;82;21068;-80
2020/12/03 13:41:28;;;;;;;161.30;56.55;;;;;;;1.41;100.00;100064.98;10785943;81;21122;-80
2020/12/03 13:56:33;;;;;;;217.35;59.70;;;;;;;1.19;100.00;100048.48;10798163;82;21070;-79
2020/12/03 14:11:53;;;;;;;242.20;88.00;;;;;;;1.09;100.00;100040.39;10786131;82;21091;-80
2020/12/03 14:26:58;;;;;;;314.35;86.63;;;;;;;1.10;100.00;100013.64;10794495;81;21419;-79
2020/12/03 14:42:03;;;;;;;402.62;90.35;;;;;;;0.93;100.00;100006.31;10450873;84;21128;-80
2020/12/03 14:57:07;;;;;;;109.05;35.10;;;;;;;0.91;100.00;99994.39;10432465;83;21017;-81
2020/12/03 15:12:12;;;;;;;104.75;34.95;;;;;;;0.90;100.00;99972.05;10778127;82;21059;-81
2020/12/03 15:27:17;;;;;;;210.50;56.40;;;;;;;0.86;100.00;99954.61;10753786;82;22263;-82
2020/12/03 15:42:25;;;;;;;134.87;44.25;;;;;;;0.83;100.00;99913.43;10798616;82;21123;-81
2020/12/03 15:57:30;;;;;;;130.18;45.88;;;;;;;0.66;100.00;99912.59;10797166;82;21536;-81
2020/12/03 16:12:36;;;;;;;77.90;34.38;;;;;;;0.57;100.00;99888.99;10484507;83;21132;-81
2020/12/03 16:27:42;;;;;;;124.20;48.40;;;;;;;0.59;100.00;99882.84;10554533;82;21068;-81
2020/12/03 16:42:46;;;;;;;165.37;56.60;;;;;;;0.62;100.00;99877.97;10591114;82;21133;-81
2020/12/03 16:57:51;;;;;;;111.35;43.90;;;;;;;0.69;100.00;99884.48;10644104;82;21095;-81
2020/12/03 17:12:56;;;;;;;174.70;68.62;;;;;;;0.52;100.00;99858.27;10560044;82;21040;-81
2020/12/03 17:28:01;;;;;;;119.97;48.33;;;;;;;0.65;100.00;99842.97;10630087;82;21140;-82
2020/12/03 17:43:05;;;;;;;166.22;61.35;;;;;;;0.70;100.00;99844.84;10679277;82;21095;-80
2020/12/03 17:58:10;;;;;;;94.30;36.00;;;;;;;0.72;100.00;99827.50;10696697;82;21498;-83
2020/12/03 18:13:15;;;;;;;132.18;49.77;;;;;;;0.71;100.00;99832.76;10761184;81;21476;-83
2020/12/03 18:28:21;;;;;;;83.25;31.85;;;;;;;0.70;100.00;99822.91;10773859;82;21406;-81
2020/12/03 18:43:25;;;;;;;99.85;39.80;;;;;;;0.68;100.00;99803.24;10730332;82;21546;-82
2020/12/03 18:58:30;;;;;;;84.20;36.33;;;;;;;0.72;100.00;99784.90;10613110;83;21033;-83
2020/12/03 19:13:34;;;;;;;131.03;46.10;;;;;;;0.66;100.00;99772.34;10597090;83;21068;-83
2020/12/03 19:28:41;;;;;;;96.15;37.60;;;;;;;0.65;100.00;99765.52;10596547;83;21056;-82
2020/12/03 19:43:47;;;;;;;116.40;41.83;;;;;;;0.58;100.00;99755.98;10647896;81;21012;-82
2020/12/03 19:58:52;;;;;;;157.12;47.00;;;;;;;0.58;100.00;99775.79;10778642;81;21638;-82
2020/12/03 20:13:57;;;;;;;362.42;142.05;;;;;;;0.59;100.00;99742.14;10759328;81;21590;-81
2020/12/03 20:29:03;;;;;;;179.63;59.90;;;;;;;0.54;100.00;99751.06;10773767;81;21033;-82
2020/12/03 20:44:08;;;;;;;110.70;40.98;;;;;;;0.54;100.00;99749.77;10718725;80;21101;-83
2020/12/03 20:59:14;;;;;;;117.93;43.80;;;;;;;0.52;100.00;99752.91;10581924;84;21543;-86
2020/12/03 21:14:18;;;;;;;93.83;36.03;;;;;;;0.61;100.00;99722.25;10598666;82;21124;-85
2020/12/03 21:29:23;;;;;;;100.62;39.38;;;;;;;0.54;100.00;99698.14;10590441;84;21196;-84
2020/12/03 21:44:27;;;;;;;76.50;32.75;;;;;;;0.63;100.00;99690.73;10612917;82;21091;-84
2020/12/03 21:59:33;;;;;;;111.68;45.28;;;;;;;0.60;100.00;99670.70;10799436;82;21488;-81
2020/12/03 22:14:38;;;;;;;86.45;37.13;;;;;;;0.58;100.00;99646.27;10828907;81;21394;-81
2020/12/03 22:29:43;;;;;;;85.00;31.95;;;;;;;0.57;100.00;99655.38;10713169;82;21080;-82
2020/12/03 22:44:47;;;;;;;102.65;38.02;;;;;;;0.66;100.00;99643.26;10728901;81;21123;-81
2020/12/03 22:59:52;;;;;;;68.00;28.32;;;;;;;0.67;100.00;99629.41;10827640;82;21060;-82
2020/12/03 23:14:56;;;;;;;83.58;32.55;;;;;;;0.66;100.00;99634.22;10819154;82;21001;-82
2020/12/03 23:30:02;;;;;;;92.88;34.55;;;;;;;0.80;100.00;99629.06;10832875;81;21055;-81
2020/12/03 23:45:07;;;;;;;71.62;28.57;;;;;;;0.74;100.00;99580.83;10687574;82;21124;-82
